Time;durP1;ratioP1;P1;durP2;ratioP2;P2;SDS_P1;SDS_P2;PMS_P1;PMS_P2;Temp;Humidity;BMP_temperature;BMP_pressure;BME280_temperature;BME280_humidity;BME280_pressure;Samples;Min_cycle;Max_cycle;Signal;HPM_P1;HPM_P2
2024/03/31 00:00:22;;;;;;;49.65;5.43;;;;;;;-141.50;100.00;63355.56;4924608;29;20047;-84
2024/03/31 00:02:50;;;;;;;30.85;4.78;;;;;;;-141.50;100.00;63355.56;4921847;29;20075;-84
2024/03/31 00:05:17;;;;;;;36.45;6.03;;;;;;;-141.50;100.00;63355.56;4918553;29;20485;-83
2024/03/31 00:07:43;;;;;;;38.75;4.90;;;;;;;-141.50;100.00;63355.56;4929604;29;20051;-85
2024/03/31 00:10:09;;;;;;;35.47;4.72;;;;;;;-141.50;100.00;63355.56;4921841;29;20680;-84
2024/03/31 00:12:35;;;;;;;35.70;5.22;;;;;;;-141.50;100.00;63355.56;4922288;29;20556;-84
2024/03/31 00:15:02;;;;;;;40.13;5.05;;;;;;;-141.50;100.00;63355.56;4922396;29;20059;-85
2024/03/31 00:17:30;;;;;;;49.55;5.68;;;;;;;-141.50;100.00;63355.56;4920789;29;20106;-86
2024/03/31 00:19:56;;;;;;;57.20;5.50;;;;;;;-141.50;100.00;63355.56;4920490;29;20095;-86
2024/03/31 00:22:22;;;;;;;43.92;5.78;;;;;;;-141.50;100.00;63355.56;4922741;29;20044;-86
2024/03/31 00:24:48;;;;;;;39.20;5.25;;;;;;;-141.50;100.00;63355.56;4920576;29;20051;-86
2024/03/31 00:27:14;;;;;;;38.78;4.93;;;;;;;-141.50;100.00;63355.56;4919121;28;20130;-85
2024/03/31 00:29:40;;;;;;;59.00;5.53;;;;;;;-141.50;100.00;63355.56;4920486;29;20518;-86
2024/03/31 00:32:06;;;;;;;39.08;4.85;;;;;;;-141.50;100.00;63355.56;4919169;29;20078;-85
2024/03/31 00:34:33;;;;;;;48.28;6.28;;;;;;;-141.50;100.00;63355.56;4918531;29;20050;-84
2024/03/31 00:36:59;;;;;;;48.40;5.85;;;;;;;-141.50;100.00;63355.56;4930521;29;20063;-87
2024/03/31 00:39:25;;;;;;;49.70;5.65;;;;;;;-141.50;100.00;63355.56;4906757;29;20449;-86
2024/03/31 00:41:51;;;;;;;45.75;5.75;;;;;;;-141.50;100.00;63355.56;4919898;29;20040;-85
2024/03/31 00:44:17;;;;;;;38.97;5.63;;;;;;;-141.50;100.00;63355.56;4935396;29;20043;-86
2024/03/31 00:46:43;;;;;;;36.80;4.78;;;;;;;-141.50;100.00;63355.56;4918415;29;20039;-84
2024/03/31 00:49:09;;;;;;;43.05;5.68;;;;;;;-141.50;100.00;63355.56;4917938;29;20139;-84
2024/03/31 00:51:35;;;;;;;38.92;5.38;;;;;;;-141.50;100.00;63355.56;4915930;29;20086;-85
2024/03/31 00:54:02;;;;;;;43.20;5.68;;;;;;;-141.50;100.00;63355.56;4920187;29;20059;-84
2024/03/31 00:56:28;;;;;;;32.33;5.25;;;;;;;-141.50;100.00;63355.56;4914153;29;20099;-84
2024/03/31 00:58:56;;;;;;;54.20;5.75;;;;;;;-141.50;100.00;63355.56;4920070;29;20051;-85
2024/03/31 01:01:22;;;;;;;46.50;5.55;;;;;;;-141.50;100.00;63355.56;4921779;29;20040;-86
2024/03/31 01:03:48;;;;;;;38.92;6.25;;;;;;;-141.50;100.00;63355.56;4927689;29;20582;-84
2024/03/31 01:06:19;;;;;;;43.25;5.22;;;;;;;-141.50;100.00;63355.56;4916483;29;20925;-83
2024/03/31 01:08:48;;;;;;;42.08;5.65;;;;;;;-141.50;100.00;63355.56;4919361;29;20063;-84
2024/03/31 01:11:15;;;;;;;39.55;5.90;;;;;;;-141.50;100.00;63355.56;4916515;29;20051;-83
2024/03/31 01:13:41;;;;;;;45.97;4.68;;;;;;;-141.50;100.00;63355.56;4919605;29;20099;-84
2024/03/31 01:16:09;;;;;;;47.90;6.10;;;;;;;-141.50;100.00;63355.56;4921220;29;20111;-84
2024/03/31 01:18:35;;;;;;;34.65;4.90;;;;;;;-141.50;100.00;63355.56;4937171;29;20063;-84
2024/03/31 01:21:04;;;;;;;46.47;5.85;;;;;;;-141.50;100.00;63355.56;4916310;29;20068;-85
2024/03/31 01:23:55;;;;;;;34.33;5.38;;;;;;;-141.50;100.00;63355.56;4918425;29;20044;-86
2024/03/31 01:26:21;;;;;;;43.70;6.03;;;;;;;-141.50;100.00;63355.56;4908266;29;20066;-83
2024/03/31 01:28:47;;;;;;;45.05;5.20;;;;;;;-141.50;100.00;63355.56;4901937;29;20052;-85
2024/03/31 01:31:13;;;;;;;40.40;6.25;;;;;;;-141.50;100.00;63355.56;4915206;29;20056;-85
2024/03/31 01:33:39;;;;;;;34.70;4.57;;;;;;;-141.50;100.00;63355.56;4914939;29;20051;-84
2024/03/31 01:36:05;;;;;;;42.47;5.10;;;;;;;-141.50;100.00;63355.56;4931360;28;20062;-85
2024/03/31 01:38:32;;;;;;;39.50;4.68;;;;;;;-141.50;100.00;63355.56;4911717;29;20059;-85
2024/03/31 01:40:58;;;;;;;49.95;6.15;;;;;;;-141.50;100.00;63355.56;4915813;29;20062;-85
2024/03/31 01:43:24;;;;;;;32.08;4.95;;;;;;;-141.50;100.00;63355.56;4934407;29;20052;-84
2024/03/31 01:45:51;;;;;;;39.90;5.90;;;;;;;-141.50;100.00;63355.56;4915923;29;20071;-84
2024/03/31 01:48:17;;;;;;;47.13;5.60;;;;;;;-141.50;100.00;63355.56;4919391;29;20040;-84
2024/03/31 01:50:43;;;;;;;33.72;5.35;;;;;;;-141.50;100.00;63355.56;4915328;29;20052;-84
2024/03/31 01:53:09;;;;;;;33.28;4.97;;;;;;;-141.50;100.00;63355.56;4928403;29;20107;-85
2024/03/31 01:55:35;;;;;;;36.85;6.28;;;;;;;-141.50;100.00;63355.56;4898752;29;20060;-85
2024/03/31 01:58:01;;;;;;;34.47;5.30;;;;;;;-141.50;100.00;63355.56;4907536;29;20048;-84
2024/03/31 02:00:27;;;;;;;31.70;5.47;;;;;;;-141.50;100.00;63355.56;4902995;29;20143;-85
2024/03/31 02:02:53;;;;;;;38.97;5.22;;;;;;;-141.50;100.00;63355.56;4899960;29;20112;-84
2024/03/31 02:05:19;;;;;;;37.47;5.60;;;;;;;-141.50;100.00;63355.56;4913719;29;20778;-85
2024/03/31 02:07:45;;;;;;;40.17;5.40;;;;;;;-141.50;100.00;63355.56;4914355;29;20090;-86
2024/03/31 02:10:12;;;;;;;37.55;5.65;;;;;;;-141.50;100.00;63355.56;4907139;29;20068;-85
2024/03/31 02:12:38;;;;;;;45.63;6.53;;;;;;;-141.50;100.00;63355.56;4911601;29;20163;-85
2024/03/31 02:15:04;;;;;;;39.08;5.45;;;;;;;-141.50;100.00;63355.56;4912031;28;20563;-84
2024/03/31 02:17:31;;;;;;;50.72;5.40;;;;;;;-141.50;100.00;63355.56;4912101;29;20572;-83
2024/03/31 02:19:57;;;;;;;40.25;5.50;;;;;;;-141.50;100.00;63355.56;4911318;29;20137;-86
2024/03/31 02:22:23;;;;;;;46.55;5.45;;;;;;;-141.50;100.00;63355.56;4909146;29;20091;-86
2024/03/31 02:24:49;;;;;;;40.38;6.22;;;;;;;-141.50;100.00;63355.56;4913158;29;20068;-86
2024/03/31 02:27:16;;;;;;;33.58;6.03;;;;;;;-141.50;100.00;63355.56;4915071;29;20076;-85
2024/03/31 02:29:45;;;;;;;37.78;6.40;;;;;;;-141.50;100.00;63355.56;4916254;29;20087;-85
2024/03/31 02:32:12;;;;;;;37.15;5.72;;;;;;;-141.50;100.00;63355.56;4912326;28;20068;-84
2024/03/31 02:34:38;;;;;;;38.97;6.70;;;;;;;-141.50;100.00;63355.56;4913496;29;20060;-84
2024/03/31 02:37:04;;;;;;;41.35;6.05;;;;;;;-141.50;100.00;63355.56;4912346;29;20104;-84
2024/03/31 02:39:30;;;;;;;29.27;4.97;;;;;;;-141.50;100.00;63355.56;4898139;29;20142;-84
2024/03/31 02:41:57;;;;;;;49.03;6.00;;;;;;;-141.50;100.00;63355.56;4916466;29;20632;-85
2024/03/31 02:44:23;;;;;;;49.40;6.40;;;;;;;-141.50;100.00;63355.56;4912464;29;20543;-84
2024/03/31 02:46:50;;;;;;;40.28;6.05;;;;;;;-141.50;100.00;63355.56;4913902;29;20051;-85
2024/03/31 02:49:16;;;;;;;49.63;6.07;;;;;;;-141.50;100.00;63355.56;4912218;29;20647;-85
2024/03/31 02:51:43;;;;;;;42.75;5.57;;;;;;;-141.50;100.00;63355.56;4910395;29;21315;-87
2024/03/31 02:54:10;;;;;;;42.85;6.28;;;;;;;-141.50;100.00;63355.56;4903313;29;20052;-87
2024/03/31 02:56:36;;;;;;;40.83;7.40;;;;;;;-141.50;100.00;63355.56;4916020;29;20052;-85
2024/03/31 02:59:05;;;;;;;41.25;6.03;;;;;;;-141.50;100.00;63355.56;4916005;29;20047;-87
2024/03/31 03:01:33;;;;;;;33.45;5.88;;;;;;;-141.50;100.00;63355.56;4915253;29;20460;-83
2024/03/31 03:03:59;;;;;;;33.63;5.43;;;;;;;-141.50;100.00;63355.56;4915398;28;20150;-83
2024/03/31 03:06:25;;;;;;;54.33;5.72;;;;;;;-141.50;100.00;63355.56;4915913;29;20058;-85
2024/03/31 03:08:52;;;;;;;35.33;6.68;;;;;;;-141.50;100.00;63355.56;4921581;29;20052;-85
2024/03/31 03:11:19;;;;;;;32.63;5.63;;;;;;;-141.50;100.00;63355.56;4919132;29;20051;-84
2024/03/31 03:13:45;;;;;;;46.33;6.30;;;;;;;-141.50;100.00;63355.56;4917314;29;20075;-85
2024/03/31 03:16:12;;;;;;;33.53;5.82;;;;;;;-141.50;100.00;63355.56;4917395;29;20048;-85
2024/03/31 03:18:38;;;;;;;44.22;6.65;;;;;;;-141.50;100.00;63355.56;4907703;29;20752;-85
2024/03/31 03:21:04;;;;;;;36.35;5.65;;;;;;;-141.50;100.00;63355.56;4926004;28;20078;-84
2024/03/31 03:23:31;;;;;;;42.20;6.13;;;;;;;-141.50;100.00;63355.56;4930090;28;20113;-86
2024/03/31 03:26:01;;;;;;;46.35;5.70;;;;;;;-141.50;100.00;63355.56;4912026;29;20059;-86
2024/03/31 03:28:27;;;;;;;40.45;6.20;;;;;;;-141.50;100.00;63355.56;4910839;29;20052;-84
2024/03/31 03:30:54;;;;;;;47.67;6.30;;;;;;;-141.50;100.00;63355.56;4920425;29;20413;-87
2024/03/31 03:33:23;;;;;;;38.25;5.93;;;;;;;-141.50;100.00;63355.56;4918058;29;20118;-85
2024/03/31 03:35:55;;;;;;;33.67;6.68;;;;;;;-141.50;100.00;63355.56;4929473;29;20051;-84
2024/03/31 03:38:21;;;;;;;50.25;6.65;;;;;;;-141.50;100.00;63355.56;4920287;29;20059;-87
2024/03/31 03:40:51;;;;;;;45.35;6.13;;;;;;;-141.50;100.00;63355.56;4906377;29;20079;-84
2024/03/31 03:43:18;;;;;;;33.58;6.03;;;;;;;-141.50;100.00;63355.56;4904482;28;20043;-86
2024/03/31 03:45:48;;;;;;;47.20;6.95;;;;;;;-141.50;100.00;63355.56;4918240;29;20532;-86
2024/03/31 03:48:14;;;;;;;37.25;7.32;;;;;;;-141.50;100.00;63355.56;4923298;28;20052;-85
2024/03/31 03:50:40;;;;;;;51.65;8.43;;;;;;;-141.50;100.00;63355.56;4943395;28;20091;-85
2024/03/31 03:53:07;;;;;;;49.33;7.43;;;;;;;-141.50;100.00;63355.56;4919260;29;20059;-85
2024/03/31 03:55:33;;;;;;;50.40;7.93;;;;;;;-141.50;100.00;63355.56;4936319;29;20064;-84
2024/03/31 03:57:59;;;;;;;38.20;7.00;;;;;;;-141.50;100.00;63355.56;4904363;29;20110;-84
2024/03/31 04:00:25;;;;;;;35.00;7.03;;;;;;;-141.50;100.00;63355.56;4917577;29;20095;-84
2024/03/31 04:02:51;;;;;;;42.33;6.70;;;;;;;-141.50;100.00;63355.56;4918763;29;20086;-85
2024/03/31 04:05:18;;;;;;;39.63;6.20;;;;;;;-141.50;100.00;63355.56;4915956;29;20135;-85
2024/03/31 04:07:48;;;;;;;35.42;6.60;;;;;;;-141.50;100.00;63355.56;4920519;29;20047;-87
2024/03/31 04:10:15;;;;;;;43.90;6.88;;;;;;;-141.50;100.00;63355.56;4916402;29;20060;-85
2024/03/31 04:12:40;;;;;;;50.63;7.28;;;;;;;-141.50;100.00;63355.56;4908381;29;20504;-83
2024/03/31 04:15:07;;;;;;;40.10;7.03;;;;;;;-141.50;100.00;63355.56;4918938;29;20106;-84
2024/03/31 04:17:34;;;;;;;43.60;6.47;;;;;;;-141.50;100.00;63355.56;4918269;29;20047;-83
2024/03/31 04:20:02;;;;;;;58.05;6.60;;;;;;;-141.50;100.00;63355.56;4919400;29;20067;-84
2024/03/31 04:22:28;;;;;;;35.03;6.47;;;;;;;-141.50;100.00;63355.56;4917713;29;20108;-84
2024/03/31 04:24:54;;;;;;;34.45;7.20;;;;;;;-141.50;100.00;63355.56;4915636;29;20062;-84
2024/03/31 04:27:21;;;;;;;45.83;6.88;;;;;;;-141.50;100.00;63355.56;4917890;29;20050;-85
2024/03/31 04:29:47;;;;;;;38.90;6.50;;;;;;;-141.50;100.00;63355.56;4942295;28;20056;-85
2024/03/31 04:32:14;;;;;;;46.50;7.32;;;;;;;-141.50;100.00;63355.56;4913355;29;20067;-86
2024/03/31 04:34:40;;;;;;;39.85;6.45;;;;;;;-141.50;100.00;63355.56;4941367;28;20062;-85
2024/03/31 04:37:06;;;;;;;43.28;7.03;;;;;;;-141.50;100.00;63355.56;4919688;29;20056;-84
2024/03/31 04:39:32;;;;;;;44.80;6.40;;;;;;;-141.50;100.00;63355.56;4930414;29;20051;-84
2024/03/31 04:41:58;;;;;;;40.05;6.95;;;;;;;-141.50;100.00;63355.56;4909331;29;20056;-84
2024/03/31 04:44:24;;;;;;;42.72;6.75;;;;;;;-141.50;100.00;63355.56;4897529;29;20040;-84
2024/03/31 04:46:51;;;;;;;37.28;5.85;;;;;;;-141.50;100.00;63355.56;4919399;29;20067;-83
2024/03/31 04:49:19;;;;;;;42.80;7.07;;;;;;;-141.50;100.00;63355.56;4933509;29;20040;-85
2024/03/31 04:51:50;;;;;;;42.95;6.57;;;;;;;-141.50;100.00;63355.56;4918131;29;20054;-84
2024/03/31 04:54:19;;;;;;;35.25;6.10;;;;;;;-141.50;100.00;63355.56;4919366;29;20058;-84
2024/03/31 04:56:48;;;;;;;46.72;6.82;;;;;;;-141.50;100.00;63355.56;4894035;29;20212;-88
2024/03/31 04:59:20;;;;;;;47.90;7.20;;;;;;;-141.50;100.00;63355.56;4921417;28;20043;-84
2024/03/31 05:01:49;;;;;;;34.92;7.32;;;;;;;-141.50;100.00;63355.56;4912141;29;20064;-87
2024/03/31 05:04:15;;;;;;;43.33;7.82;;;;;;;-141.50;100.00;63355.56;4913001;29;20054;-84
2024/03/31 05:06:41;;;;;;;44.45;7.15;;;;;;;-141.50;100.00;63355.56;4916046;29;20040;-86
2024/03/31 05:09:08;;;;;;;50.25;8.07;;;;;;;-141.50;100.00;63355.56;4918411;29;20111;-85
2024/03/31 05:11:34;;;;;;;31.90;6.85;;;;;;;-141.50;100.00;63355.56;4915864;29;20055;-84
2024/03/31 05:14:02;;;;;;;48.25;7.32;;;;;;;-141.50;100.00;63355.56;4923136;28;20142;-85
2024/03/31 05:16:30;;;;;;;49.83;8.82;;;;;;;-141.50;100.00;63355.56;4917606;29;20048;-85
2024/03/31 05:18:56;;;;;;;60.38;9.40;;;;;;;-141.50;100.00;63355.56;4916343;29;20067;-85
2024/03/31 05:21:22;;;;;;;50.20;8.57;;;;;;;-141.50;100.00;63355.56;4928202;29;20516;-84
2024/03/31 05:23:48;;;;;;;46.28;8.95;;;;;;;-141.50;100.00;63355.56;4923051;29;20060;-84
2024/03/31 05:26:27;;;;;;;50.58;7.80;;;;;;;-141.50;100.00;63355.56;4919499;29;20480;-85
2024/03/31 05:28:53;;;;;;;45.33;9.43;;;;;;;-141.50;100.00;63355.56;4928039;29;20054;-84
2024/03/31 05:31:20;;;;;;;35.30;7.00;;;;;;;-141.50;100.00;63355.56;4924662;28;20055;-84
2024/03/31 05:34:12;;;;;;;52.05;8.80;;;;;;;-141.50;100.00;63355.56;4918901;29;20083;-85
2024/03/31 05:36:40;;;;;;;41.90;8.43;;;;;;;-141.50;100.00;63355.56;4918453;29;20047;-85
2024/03/31 05:39:06;;;;;;;42.00;7.78;;;;;;;-141.50;100.00;63355.56;4918715;29;20055;-85
2024/03/31 05:41:32;;;;;;;55.58;8.25;;;;;;;-141.50;100.00;63355.56;4919889;29;20051;-85
2024/03/31 05:43:58;;;;;;;46.45;8.13;;;;;;;-141.50;100.00;63355.56;4918205;29;20062;-86
2024/03/31 05:46:27;;;;;;;38.20;8.00;;;;;;;-141.50;100.00;63355.56;4919899;29;20047;-84
2024/03/31 05:48:53;;;;;;;44.22;7.72;;;;;;;-141.50;100.00;63355.56;4926399;29;20476;-84
2024/03/31 05:51:22;;;;;;;37.60;8.00;;;;;;;-141.50;100.00;63355.56;4920177;29;20203;-83
2024/03/31 05:53:49;;;;;;;46.17;8.27;;;;;;;-141.50;100.00;63355.56;4914421;29;20098;-85
2024/03/31 05:56:16;;;;;;;41.13;9.32;;;;;;;-141.50;100.00;63355.56;4911940;29;20044;-84
2024/03/31 05:58:42;;;;;;;46.00;7.60;;;;;;;-141.50;100.00;63355.56;4915040;29;20044;-85
2024/03/31 06:01:12;;;;;;;43.65;7.57;;;;;;;-141.50;100.00;63355.56;4915762;29;20062;-85
2024/03/31 06:03:38;;;;;;;36.88;6.97;;;;;;;-141.50;100.00;63355.56;4914736;29;20047;-85
2024/03/31 06:06:04;;;;;;;42.00;7.18;;;;;;;-141.50;100.00;63355.56;4909251;28;20138;-84
2024/03/31 06:08:31;;;;;;;35.60;7.28;;;;;;;-141.50;100.00;63355.56;4913824;29;20544;-83
2024/03/31 06:10:57;;;;;;;47.47;8.52;;;;;;;-141.50;100.00;63355.56;4912030;29;20134;-85
2024/03/31 06:13:23;;;;;;;44.22;7.65;;;;;;;-141.50;100.00;63355.56;4912683;29;20329;-83
2024/03/31 06:15:49;;;;;;;45.97;7.47;;;;;;;-141.50;100.00;63355.56;4921039;29;20095;-83
2024/03/31 06:18:15;;;;;;;48.05;7.50;;;;;;;-141.50;100.00;63355.56;4910619;29;20062;-83
2024/03/31 06:20:43;;;;;;;37.50;7.15;;;;;;;-141.50;100.00;63355.56;4910540;29;20048;-84
2024/03/31 06:23:09;;;;;;;49.75;8.13;;;;;;;-141.50;100.00;63355.56;4907251;29;20109;-83
2024/03/31 06:25:37;;;;;;;50.53;7.47;;;;;;;-141.50;100.00;63355.56;4930189;28;20111;-83
2024/03/31 06:28:03;;;;;;;42.33;8.60;;;;;;;-141.50;100.00;63355.56;4916901;28;20055;-84
2024/03/31 06:30:29;;;;;;;51.58;8.45;;;;;;;-141.50;100.00;63355.56;4911727;29;20044;-81
2024/03/31 06:32:56;;;;;;;48.78;8.60;;;;;;;-141.50;100.00;63355.56;4920168;28;20327;-82
2024/03/31 06:35:22;;;;;;;52.60;8.52;;;;;;;-141.50;100.00;63355.56;4914909;29;20052;-83
2024/03/31 06:37:48;;;;;;;51.35;9.88;;;;;;;-141.50;100.00;63355.56;4911132;29;20043;-85
2024/03/31 06:40:17;;;;;;;36.88;8.15;;;;;;;-141.50;100.00;63355.56;4925518;28;20047;-84
2024/03/31 06:42:44;;;;;;;47.58;8.38;;;;;;;-141.50;100.00;63355.56;4926008;29;20115;-84
2024/03/31 06:45:09;;;;;;;46.03;7.78;;;;;;;-141.50;100.00;63355.56;4916055;29;20055;-85
2024/03/31 06:47:36;;;;;;;58.70;10.20;;;;;;;-141.50;100.00;63355.56;4924815;29;20078;-85
2024/03/31 06:50:03;;;;;;;62.53;9.77;;;;;;;-141.50;100.00;63355.56;4899260;29;20043;-85
2024/03/31 06:52:29;;;;;;;50.38;8.90;;;;;;;-141.50;100.00;63355.56;4920616;28;20142;-84
2024/03/31 06:54:56;;;;;;;48.15;8.88;;;;;;;-141.50;100.00;63355.56;4894108;29;20052;-84
2024/03/31 06:57:22;;;;;;;45.15;8.02;;;;;;;-141.50;100.00;63355.56;4918547;29;20660;-86
2024/03/31 06:59:49;;;;;;;46.88;8.75;;;;;;;-141.50;100.00;63355.56;4924780;29;20068;-84
2024/03/31 07:02:15;;;;;;;59.28;8.45;;;;;;;-141.50;100.00;63355.56;4916183;29;20161;-85
2024/03/31 07:04:41;;;;;;;52.30;8.98;;;;;;;-141.50;100.00;63355.56;4908812;29;20521;-86
2024/03/31 07:07:08;;;;;;;46.90;8.77;;;;;;;-141.50;100.00;63355.56;4890670;29;20261;-85
2024/03/31 07:09:34;;;;;;;50.03;9.90;;;;;;;-141.50;100.00;63355.56;4918354;29;20528;-86
2024/03/31 07:12:00;;;;;;;47.13;10.13;;;;;;;-141.50;100.00;63355.56;4917277;29;20070;-85
2024/03/31 07:14:26;;;;;;;57.63;14.18;;;;;;;-141.50;100.00;63355.56;4900628;29;20269;-86
2024/03/31 07:16:53;;;;;;;65.53;10.10;;;;;;;-141.50;100.00;63355.56;4922706;29;20056;-87
2024/03/31 07:19:21;;;;;;;60.60;9.55;;;;;;;-141.50;100.00;63355.56;4892118;29;20071;-86
2024/03/31 07:21:47;;;;;;;53.50;9.23;;;;;;;-141.50;100.00;63355.56;4915976;29;20059;-87
2024/03/31 07:24:13;;;;;;;52.28;9.27;;;;;;;-141.50;100.00;63355.56;4911083;29;20066;-86
2024/03/31 07:26:39;;;;;;;57.70;8.90;;;;;;;-141.50;100.00;63355.56;4914347;29;20059;-86
2024/03/31 07:29:05;;;;;;;47.08;9.23;;;;;;;-141.50;100.00;63355.56;4920779;28;20051;-86
2024/03/31 07:31:32;;;;;;;45.42;9.40;;;;;;;-141.50;100.00;63355.56;4916157;29;20067;-87
2024/03/31 07:33:59;;;;;;;53.42;9.10;;;;;;;-141.50;100.00;63355.56;4916618;29;20075;-86
2024/03/31 07:36:25;;;;;;;52.00;9.27;;;;;;;-141.50;100.00;63355.56;4893766;29;20429;-86
2024/03/31 07:38:51;;;;;;;57.92;10.45;;;;;;;-141.50;100.00;63355.56;4918176;29;20111;-86
2024/03/31 07:41:17;;;;;;;52.83;9.82;;;;;;;-141.50;100.00;63355.56;4915960;29;20079;-87
2024/03/31 07:43:43;;;;;;;66.45;10.25;;;;;;;-141.50;100.00;63355.56;4902786;29;20051;-85
2024/03/31 07:46:09;;;;;;;52.63;10.75;;;;;;;-141.50;100.00;63355.56;4917053;29;20067;-87
2024/03/31 07:48:38;;;;;;;62.53;9.93;;;;;;;-141.50;100.00;63355.56;4919314;29;21429;-87
2024/03/31 07:51:04;;;;;;;56.08;10.95;;;;;;;-141.50;100.00;63355.56;4914904;29;20055;-88
2024/03/31 07:53:32;;;;;;;53.88;10.60;;;;;;;-141.50;100.00;63355.56;4916594;29;20044;-87
2024/03/31 07:56:00;;;;;;;57.17;9.85;;;;;;;-141.50;100.00;63355.56;4914095;29;20127;-86
2024/03/31 07:58:29;;;;;;;51.72;10.32;;;;;;;-141.50;100.00;63355.56;4903057;29;20059;-88
2024/03/31 08:00:56;;;;;;;52.03;10.05;;;;;;;-141.50;100.00;63355.56;4900583;29;20090;-86
2024/03/31 08:03:23;;;;;;;57.92;10.52;;;;;;;-141.50;100.00;63355.56;4916824;29;20131;-87
2024/03/31 08:05:49;;;;;;;57.85;10.80;;;;;;;-141.50;100.00;63355.56;4931836;29;20055;-87
2024/03/31 08:08:15;;;;;;;59.22;11.05;;;;;;;-141.50;100.00;63355.56;4908308;29;20057;-85
2024/03/31 08:10:44;;;;;;;47.05;11.23;;;;;;;-141.50;100.00;63355.56;4929743;28;20079;-88
2024/03/31 08:13:11;;;;;;;57.35;11.90;;;;;;;-141.50;100.00;63355.56;4916493;29;20094;-86
2024/03/31 08:15:37;;;;;;;60.17;10.93;;;;;;;-141.50;100.00;63355.56;4926010;29;20062;-87
2024/03/31 08:18:05;;;;;;;48.83;10.82;;;;;;;-141.50;100.00;63355.56;4894347;29;20138;-85
2024/03/31 08:20:35;;;;;;;60.38;11.40;;;;;;;-141.50;100.00;63355.56;4885938;29;20059;-88
2024/03/31 08:23:01;;;;;;;60.15;11.02;;;;;;;-141.50;100.00;63355.56;4886749;29;20163;-87
2024/03/31 08:25:28;;;;;;;56.88;11.60;;;;;;;-141.50;100.00;63355.56;4903547;29;20043;-86
2024/03/31 08:27:54;;;;;;;48.85;11.88;;;;;;;-141.50;100.00;63355.56;4913324;29;20059;-86
2024/03/31 08:30:20;;;;;;;51.72;11.77;;;;;;;-141.50;100.00;63355.56;4911823;29;20043;-83
2024/03/31 08:32:46;;;;;;;63.88;11.65;;;;;;;-141.50;100.00;63355.56;4901928;29;20052;-84
2024/03/31 08:35:12;;;;;;;56.20;10.73;;;;;;;-141.50;100.00;63355.56;4920849;29;20051;-86
2024/03/31 08:37:38;;;;;;;54.50;10.93;;;;;;;-141.50;100.00;63355.56;4919593;29;20585;-87
2024/03/31 08:40:05;;;;;;;61.30;11.07;;;;;;;-141.50;100.00;63355.56;4925066;28;20055;-84
2024/03/31 08:42:43;;;;;;;73.03;12.77;;;;;;;-141.50;100.00;63355.56;4945464;28;20114;-85
2024/03/31 08:45:13;;;;;;;60.67;12.48;;;;;;;-141.50;100.00;63355.56;4924729;29;20424;-83
2024/03/31 08:47:43;;;;;;;58.42;12.55;;;;;;;-141.50;100.00;63355.56;4923871;29;20048;-85
2024/03/31 08:50:12;;;;;;;68.13;12.82;;;;;;;-141.50;100.00;63355.56;4913830;29;20055;-86
2024/03/31 08:52:40;;;;;;;59.88;12.90;;;;;;;-141.50;100.00;63355.56;4917185;29;20078;-85
2024/03/31 08:55:07;;;;;;;51.95;11.43;;;;;;;-141.50;100.00;63355.56;4912044;29;20052;-84
2024/03/31 08:57:33;;;;;;;71.22;12.18;;;;;;;-141.50;100.00;63355.56;4918899;29;20070;-85
2024/03/31 08:59:59;;;;;;;53.72;11.35;;;;;;;-141.50;100.00;63355.56;4935050;28;20570;-84
2024/03/31 09:02:25;;;;;;;58.25;10.82;;;;;;;-141.50;100.00;63355.56;4912780;29;20044;-83
2024/03/31 09:04:52;;;;;;;59.78;11.45;;;;;;;-141.50;100.00;63355.56;4914352;29;20052;-85
2024/03/31 09:07:19;;;;;;;62.53;12.20;;;;;;;-141.50;100.00;63355.56;4936156;28;20071;-84
2024/03/31 09:09:46;;;;;;;50.72;10.13;;;;;;;-141.50;100.00;63355.56;4919274;29;20055;-84
2024/03/31 09:12:12;;;;;;;52.38;11.30;;;;;;;-141.50;100.00;63355.56;4920112;29;20052;-83
2024/03/31 09:14:39;;;;;;;55.15;11.48;;;;;;;-141.50;100.00;63355.56;4925987;28;20088;-83
2024/03/31 09:17:13;;;;;;;58.58;12.57;;;;;;;-141.50;100.00;63355.56;4921423;29;20588;-85
2024/03/31 09:19:39;;;;;;;53.50;9.95;;;;;;;-141.50;100.00;63355.56;4912878;29;20070;-85
2024/03/31 09:22:06;;;;;;;57.22;11.35;;;;;;;-141.50;100.00;63355.56;4920385;28;20119;-85
2024/03/31 09:24:33;;;;;;;50.83;11.18;;;;;;;-141.50;100.00;63355.56;4920004;29;20481;-85
2024/03/31 09:27:00;;;;;;;50.80;11.50;;;;;;;-141.50;100.00;63355.56;4921372;28;20052;-84
2024/03/31 09:29:27;;;;;;;57.92;11.82;;;;;;;-141.50;100.00;63355.56;4941387;28;20454;-83
2024/03/31 09:32:05;;;;;;;49.63;10.93;;;;;;;-141.50;100.00;63355.56;4920147;29;20528;-84
2024/03/31 09:34:31;;;;;;;60.55;12.55;;;;;;;-141.50;100.00;63355.56;4938962;28;20127;-83
2024/03/31 09:37:01;;;;;;;59.15;12.60;;;;;;;-141.50;100.00;63355.56;4919763;29;20051;-83
2024/03/31 09:39:27;;;;;;;60.63;12.18;;;;;;;-141.50;100.00;63355.56;4917163;29;20044;-83
2024/03/31 09:41:56;;;;;;;53.17;11.20;;;;;;;-141.50;100.00;63355.56;4923410;29;20067;-83
2024/03/31 09:44:22;;;;;;;66.72;12.55;;;;;;;-141.50;100.00;63355.56;4918073;29;20638;-84
2024/03/31 09:46:49;;;;;;;47.75;11.38;;;;;;;-141.50;100.00;63355.56;4918904;29;20059;-84
2024/03/31 09:49:23;;;;;;;70.45;11.57;;;;;;;-141.50;100.00;63355.56;4911397;29;20558;-84
2024/03/31 09:51:53;;;;;;;44.70;11.05;;;;;;;-141.50;100.00;63355.56;4911054;29;20047;-85
2024/03/31 09:54:26;;;;;;;51.45;10.93;;;;;;;-141.50;100.00;63355.56;4917918;29;20043;-84
2024/03/31 09:57:11;;;;;;;49.05;11.20;;;;;;;-141.50;100.00;63355.56;4919772;29;22242;-84
2024/03/31 09:59:41;;;;;;;53.70;11.82;;;;;;;-141.50;100.00;63355.56;4915700;29;20532;-84
2024/03/31 10:02:08;;;;;;;41.92;11.07;;;;;;;-141.50;100.00;63355.56;4918094;29;20114;-83
2024/03/31 10:05:00;;;;;;;47.42;11.30;;;;;;;-141.50;100.00;63355.56;4915696;29;20119;-84
2024/03/31 10:07:28;;;;;;;57.50;11.27;;;;;;;-141.50;100.00;63355.56;4932494;29;20043;-82
2024/03/31 10:09:54;;;;;;;50.10;11.30;;;;;;;-141.50;100.00;63355.56;4916127;29;20051;-83
2024/03/31 10:12:22;;;;;;;50.80;11.32;;;;;;;-141.50;100.00;63355.56;4909834;29;20079;-83
2024/03/31 10:14:49;;;;;;;49.88;11.27;;;;;;;-141.50;100.00;63355.56;4917856;29;20047;-83
2024/03/31 10:17:16;;;;;;;48.15;11.23;;;;;;;-141.50;100.00;63355.56;4923429;28;20055;-82
2024/03/31 10:19:46;;;;;;;63.40;11.88;;;;;;;-141.50;100.00;63355.56;4921191;29;20052;-84
2024/03/31 10:22:14;;;;;;;53.10;12.05;;;;;;;-141.50;100.00;63355.56;4918457;29;20580;-83
2024/03/31 10:24:41;;;;;;;49.10;10.55;;;;;;;-141.50;100.00;63355.56;4921742;29;20060;-83
2024/03/31 10:27:07;;;;;;;64.60;11.18;;;;;;;-141.50;100.00;63355.56;4922787;29;20142;-84
2024/03/31 10:29:35;;;;;;;44.70;10.85;;;;;;;-141.50;100.00;63355.56;4942470;28;20146;-83
2024/03/31 10:32:01;;;;;;;49.72;11.95;;;;;;;-141.50;100.00;63355.56;4933765;29;20048;-83
2024/03/31 10:34:27;;;;;;;57.63;11.25;;;;;;;-141.50;100.00;63355.56;4920595;29;20055;-84
2024/03/31 10:36:54;;;;;;;49.65;11.25;;;;;;;-141.50;100.00;63355.56;4920150;29;20063;-84
2024/03/31 10:39:23;;;;;;;55.45;10.43;;;;;;;-141.50;100.00;63355.56;4927313;29;20594;-84
2024/03/31 10:41:49;;;;;;;43.35;11.15;;;;;;;-141.50;100.00;63355.56;4924462;29;20058;-84
2024/03/31 10:44:19;;;;;;;43.78;9.05;;;;;;;-141.50;100.00;63355.56;4924039;29;20100;-84
2024/03/31 10:46:46;;;;;;;44.60;8.88;;;;;;;-141.50;100.00;63355.56;4923723;29;20047;-84
2024/03/31 10:49:12;;;;;;;52.15;9.80;;;;;;;-141.50;100.00;63355.56;4939752;29;20115;-84
2024/03/31 10:51:42;;;;;;;40.13;9.57;;;;;;;-141.50;100.00;63355.56;4924545;29;20048;-83
2024/03/31 10:54:30;;;;;;;42.53;9.65;;;;;;;-141.50;100.00;63355.56;4916725;29;20259;-85
2024/03/31 10:57:08;;;;;;;41.10;9.50;;;;;;;-141.50;100.00;63355.56;4924439;29;20074;-85
2024/03/31 10:59:37;;;;;;;56.83;10.32;;;;;;;-141.50;100.00;63355.56;4927052;29;20669;-84